sensor_id;sensor_type;location;lat;lon;timestamp;P1;durP1;ratioP1;P2;durP2;ratioP2
14078;SDS011;7115;50.150;8.568;2023-04-01T00:00:57;3.73;;;0.90;;
14078;SDS011;7115;50.150;8.568;2023-04-01T00:03:27;4.60;;;1.10;;
14078;SDS011;7115;50.150;8.568;2023-04-01T00:05:54;7.03;;;1.57;;
14078;SDS011;7115;50.150;8.568;2023-04-01T00:08:22;3.87;;;1.00;;
14078;SDS011;7115;50.150;8.568;2023-04-01T00:10:49;3.07;;;1.07;;
14078;SDS011;7115;50.150;8.568;2023-04-01T00:13:16;4.30;;;1.13;;
14078;SDS011;7115;50.150;8.568;2023-04-01T00:15:43;4.73;;;1.03;;
14078;SDS011;7115;50.150;8.568;2023-04-01T00:18:11;2.90;;;1.07;;
14078;SDS011;7115;50.150;8.568;2023-04-01T00:20:39;3.20;;;0.87;;
14078;SDS011;7115;50.150;8.568;2023-04-01T00:23:10;5.90;;;1.10;;
14078;SDS011;7115;50.150;8.568;2023-04-01T00:25:37;3.87;;;0.80;;
14078;SDS011;7115;50.150;8.568;2023-04-01T00:28:04;4.77;;;1.10;;
14078;SDS011;7115;50.150;8.568;2023-04-01T00:30:31;3.70;;;1.00;;
14078;SDS011;7115;50.150;8.568;2023-04-01T00:32:58;6.23;;;1.40;;
14078;SDS011;7115;50.150;8.568;2023-04-01T00:35:24;4.83;;;1.30;;
14078;SDS011;7115;50.150;8.568;2023-04-01T00:37:53;4.33;;;1.30;;
14078;SDS011;7115;50.150;8.568;2023-04-01T00:40:25;4.03;;;1.27;;
14078;SDS011;7115;50.150;8.568;2023-04-01T00:42:53;5.63;;;1.07;;
14078;SDS011;7115;50.150;8.568;2023-04-01T00:45:29;2.93;;;0.90;;
14078;SDS011;7115;50.150;8.568;2023-04-01T00:47:59;6.57;;;1.30;;
14078;SDS011;7115;50.150;8.568;2023-04-01T00:50:30;3.43;;;0.97;;
14078;SDS011;7115;50.150;8.568;2023-04-01T00:53:01;4.17;;;0.83;;
14078;SDS011;7115;50.150;8.568;2023-04-01T00:55:30;3.40;;;0.90;;
14078;SDS011;7115;50.150;8.568;2023-04-01T00:57:59;3.90;;;0.90;;
14078;SDS011;7115;50.150;8.568;2023-04-01T01:00:30;5.50;;;1.40;;
14078;SDS011;7115;50.150;8.568;2023-04-01T01:02:57;6.53;;;1.27;;
14078;SDS011;7115;50.150;8.568;2023-04-01T01:05:27;3.67;;;1.10;;
14078;SDS011;7115;50.150;8.568;2023-04-01T01:08:17;5.73;;;1.13;;
14078;SDS011;7115;50.150;8.568;2023-04-01T01:10:56;3.33;;;0.90;;
14078;SDS011;7115;50.150;8.568;2023-04-01T01:13:25;3.80;;;1.00;;
14078;SDS011;7115;50.150;8.568;2023-04-01T01:15:59;3.50;;;1.27;;
14078;SDS011;7115;50.150;8.568;2023-04-01T01:18:31;3.47;;;0.80;;
14078;SDS011;7115;50.150;8.568;2023-04-01T01:24:03;4.33;;;1.20;;
14078;SDS011;7115;50.150;8.568;2023-04-01T01:26:53;3.97;;;1.10;;
14078;SDS011;7115;50.150;8.568;2023-04-01T01:29:39;2.87;;;0.80;;
14078;SDS011;7115;50.150;8.568;2023-04-01T01:32:16;4.10;;;1.37;;
14078;SDS011;7115;50.150;8.568;2023-04-01T01:34:55;6.20;;;1.03;;
14078;SDS011;7115;50.150;8.568;2023-04-01T01:37:33;4.77;;;1.10;;
14078;SDS011;7115;50.150;8.568;2023-04-01T01:40:01;8.13;;;1.17;;
14078;SDS011;7115;50.150;8.568;2023-04-01T01:42:31;3.53;;;1.10;;
14078;SDS011;7115;50.150;8.568;2023-04-01T01:45:02;2.53;;;0.97;;
14078;SDS011;7115;50.150;8.568;2023-04-01T01:47:32;8.03;;;1.73;;
14078;SDS011;7115;50.150;8.568;2023-04-01T01:50:01;3.43;;;1.00;;
14078;SDS011;7115;50.150;8.568;2023-04-01T01:52:30;4.40;;;1.20;;
14078;SDS011;7115;50.150;8.568;2023-04-01T01:54:57;2.87;;;1.10;;
14078;SDS011;7115;50.150;8.568;2023-04-01T01:57:25;3.03;;;1.00;;
14078;SDS011;7115;50.150;8.568;2023-04-01T01:59:55;1.97;;;0.73;;
14078;SDS011;7115;50.150;8.568;2023-04-01T02:02:25;3.30;;;1.00;;
14078;SDS011;7115;50.150;8.568;2023-04-01T02:04:57;5.53;;;1.00;;
14078;SDS011;7115;50.150;8.568;2023-04-01T02:07:25;4.23;;;0.80;;
14078;SDS011;7115;50.150;8.568;2023-04-01T02:09:56;3.10;;;0.70;;
14078;SDS011;7115;50.150;8.568;2023-04-01T02:12:23;4.57;;;1.03;;
14078;SDS011;7115;50.150;8.568;2023-04-01T02:14:51;5.63;;;1.03;;
14078;SDS011;7115;50.150;8.568;2023-04-01T02:17:22;2.83;;;0.80;;
14078;SDS011;7115;50.150;8.568;2023-04-01T02:19:53;2.40;;;1.03;;
14078;SDS011;7115;50.150;8.568;2023-04-01T02:22:23;3.27;;;0.73;;
14078;SDS011;7115;50.150;8.568;2023-04-01T02:24:53;3.10;;;0.73;;
14078;SDS011;7115;50.150;8.568;2023-04-01T02:27:25;6.70;;;0.80;;
14078;SDS011;7115;50.150;8.568;2023-04-01T02:29:52;2.43;;;0.90;;
14078;SDS011;7115;50.150;8.568;2023-04-01T02:32:19;5.63;;;0.90;;
14078;SDS011;7115;50.150;8.568;2023-04-01T02:34:47;3.17;;;0.80;;
14078;SDS011;7115;50.150;8.568;2023-04-01T02:37:14;3.23;;;1.10;;
14078;SDS011;7115;50.150;8.568;2023-04-01T02:39:42;6.30;;;1.43;;
14078;SDS011;7115;50.150;8.568;2023-04-01T02:42:09;2.03;;;0.90;;
14078;SDS011;7115;50.150;8.568;2023-04-01T02:44:37;2.50;;;0.67;;
14078;SDS011;7115;50.150;8.568;2023-04-01T02:47:04;3.53;;;0.80;;
14078;SDS011;7115;50.150;8.568;2023-04-01T02:49:31;1.73;;;0.50;;
14078;SDS011;7115;50.150;8.568;2023-04-01T02:51:58;3.37;;;0.57;;
14078;SDS011;7115;50.150;8.568;2023-04-01T02:54:25;3.20;;;0.90;;
14078;SDS011;7115;50.150;8.568;2023-04-01T02:56:52;6.27;;;0.80;;
14078;SDS011;7115;50.150;8.568;2023-04-01T02:59:19;2.93;;;0.70;;
14078;SDS011;7115;50.150;8.568;2023-04-01T03:01:47;3.17;;;0.80;;
14078;SDS011;7115;50.150;8.568;2023-04-01T03:04:14;2.77;;;0.93;;
14078;SDS011;7115;50.150;8.568;2023-04-01T03:06:41;2.30;;;0.60;;
14078;SDS011;7115;50.150;8.568;2023-04-01T03:09:08;3.80;;;0.90;;
14078;SDS011;7115;50.150;8.568;2023-04-01T03:11:35;3.93;;;1.10;;
14078;SDS011;7115;50.150;8.568;2023-04-01T03:14:02;2.13;;;0.70;;
14078;SDS011;7115;50.150;8.568;2023-04-01T03:16:29;2.70;;;0.63;;
14078;SDS011;7115;50.150;8.568;2023-04-01T03:18:57;5.27;;;1.00;;
14078;SDS011;7115;50.150;8.568;2023-04-01T03:21:25;2.57;;;0.67;;
14078;SDS011;7115;50.150;8.568;2023-04-01T03:23:52;2.87;;;1.07;;
14078;SDS011;7115;50.150;8.568;2023-04-01T03:26:19;4.27;;;0.80;;
14078;SDS011;7115;50.150;8.568;2023-04-01T03:28:47;3.47;;;1.37;;
14078;SDS011;7115;50.150;8.568;2023-04-01T03:31:14;5.13;;;1.00;;
14078;SDS011;7115;50.150;8.568;2023-04-01T03:33:42;5.40;;;1.10;;
14078;SDS011;7115;50.150;8.568;2023-04-01T03:36:11;3.07;;;0.67;;
14078;SDS011;7115;50.150;8.568;2023-04-01T03:38:39;4.77;;;0.90;;
14078;SDS011;7115;50.150;8.568;2023-04-01T03:41:06;4.27;;;1.00;;
14078;SDS011;7115;50.150;8.568;2023-04-01T03:43:37;4.60;;;0.63;;
14078;SDS011;7115;50.150;8.568;2023-04-01T03:46:04;5.17;;;0.97;;
14078;SDS011;7115;50.150;8.568;2023-04-01T03:48:31;3.50;;;0.90;;
14078;SDS011;7115;50.150;8.568;2023-04-01T03:50:58;4.30;;;0.90;;
14078;SDS011;7115;50.150;8.568;2023-04-01T03:53:26;4.73;;;0.77;;
14078;SDS011;7115;50.150;8.568;2023-04-01T03:55:53;5.43;;;2.50;;
14078;SDS011;7115;50.150;8.568;2023-04-01T03:58:20;2.90;;;0.80;;
14078;SDS011;7115;50.150;8.568;2023-04-01T04:00:47;5.83;;;1.07;;
14078;SDS011;7115;50.150;8.568;2023-04-01T04:03:13;4.27;;;0.80;;
14078;SDS011;7115;50.150;8.568;2023-04-01T04:05:45;3.57;;;0.80;;
14078;SDS011;7115;50.150;8.568;2023-04-01T04:08:13;4.53;;;0.87;;
14078;SDS011;7115;50.150;8.568;2023-04-01T04:10:41;2.20;;;0.73;;
14078;SDS011;7115;50.150;8.568;2023-04-01T04:13:09;4.10;;;0.93;;
14078;SDS011;7115;50.150;8.568;2023-04-01T04:15:35;3.60;;;0.70;;
14078;SDS011;7115;50.150;8.568;2023-04-01T04:18:02;2.07;;;0.70;;
14078;SDS011;7115;50.150;8.568;2023-04-01T04:20:30;7.60;;;1.03;;
14078;SDS011;7115;50.150;8.568;2023-04-01T04:22:56;9.03;;;4.60;;
14078;SDS011;7115;50.150;8.568;2023-04-01T04:25:23;2.47;;;0.90;;
14078;SDS011;7115;50.150;8.568;2023-04-01T04:27:51;2.00;;;0.80;;
14078;SDS011;7115;50.150;8.568;2023-04-01T04:30:18;3.50;;;0.97;;
14078;SDS011;7115;50.150;8.568;2023-04-01T04:32:45;4.70;;;0.77;;
14078;SDS011;7115;50.150;8.568;2023-04-01T04:35:12;3.93;;;0.67;;
14078;SDS011;7115;50.150;8.568;2023-04-01T04:37:39;6.93;;;1.10;;
14078;SDS011;7115;50.150;8.568;2023-04-01T04:40:07;7.53;;;1.10;;
14078;SDS011;7115;50.150;8.568;2023-04-01T04:42:34;2.67;;;0.90;;
14078;SDS011;7115;50.150;8.568;2023-04-01T04:45:02;4.40;;;1.20;;
14078;SDS011;7115;50.150;8.568;2023-04-01T04:47:30;3.00;;;0.97;;
14078;SDS011;7115;50.150;8.568;2023-04-01T04:49:57;3.40;;;1.10;;
14078;SDS011;7115;50.150;8.568;2023-04-01T04:52:24;6.53;;;0.90;;
14078;SDS011;7115;50.150;8.568;2023-04-01T04:54:51;6.70;;;0.93;;
14078;SDS011;7115;50.150;8.568;2023-04-01T04:57:18;3.90;;;0.80;;
14078;SDS011;7115;50.150;8.568;2023-04-01T04:59:45;3.27;;;0.90;;
14078;SDS011;7115;50.150;8.568;2023-04-01T05:02:13;3.03;;;0.83;;
14078;SDS011;7115;50.150;8.568;2023-04-01T05:04:40;1.73;;;0.80;;
14078;SDS011;7115;50.150;8.568;2023-04-01T05:07:07;3.30;;;0.80;;
14078;SDS011;7115;50.150;8.568;2023-04-01T05:09:34;1.47;;;0.57;;
14078;SDS011;7115;50.150;8.568;2023-04-01T05:12:00;1.43;;;0.83;;
14078;SDS011;7115;50.150;8.568;2023-04-01T05:14:27;3.30;;;0.90;;
14078;SDS011;7115;50.150;8.568;2023-04-01T05:16:54;1.90;;;0.73;;
14078;SDS011;7115;50.150;8.568;2023-04-01T05:19:22;7.67;;;1.10;;
14078;SDS011;7115;50.150;8.568;2023-04-01T05:21:49;2.90;;;1.10;;
14078;SDS011;7115;50.150;8.568;2023-04-01T05:24:16;2.83;;;0.40;;
14078;SDS011;7115;50.150;8.568;2023-04-01T05:26:43;2.87;;;0.87;;
14078;SDS011;7115;50.150;8.568;2023-04-01T05:29:10;3.97;;;0.80;;
14078;SDS011;7115;50.150;8.568;2023-04-01T05:31:37;4.03;;;0.53;;
14078;SDS011;7115;50.150;8.568;2023-04-01T05:34:04;3.20;;;0.80;;
14078;SDS011;7115;50.150;8.568;2023-04-01T05:36:32;5.40;;;0.93;;
14078;SDS011;7115;50.150;8.568;2023-04-01T05:39:00;3.73;;;0.83;;
14078;SDS011;7115;50.150;8.568;2023-04-01T05:41:27;3.50;;;0.70;;
14078;SDS011;7115;50.150;8.568;2023-04-01T05:43:54;4.07;;;0.77;;
14078;SDS011;7115;50.150;8.568;2023-04-01T05:46:21;4.57;;;0.90;;
14078;SDS011;7115;50.150;8.568;2023-04-01T05:48:48;3.73;;;0.73;;
14078;SDS011;7115;50.150;8.568;2023-04-01T05:51:15;3.43;;;0.70;;
14078;SDS011;7115;50.150;8.568;2023-04-01T05:53:43;1.27;;;0.60;;
14078;SDS011;7115;50.150;8.568;2023-04-01T05:56:10;3.17;;;0.77;;
14078;SDS011;7115;50.150;8.568;2023-04-01T05:58:37;2.10;;;0.57;;
14078;SDS011;7115;50.150;8.568;2023-04-01T06:01:05;4.50;;;0.70;;
14078;SDS011;7115;50.150;8.568;2023-04-01T06:03:40;2.43;;;0.77;;
14078;SDS011;7115;50.150;8.568;2023-04-01T06:06:10;1.93;;;0.63;;
14078;SDS011;7115;50.150;8.568;2023-04-01T06:08:41;2.63;;;0.80;;
14078;SDS011;7115;50.150;8.568;2023-04-01T06:11:16;3.23;;;0.50;;
14078;SDS011;7115;50.150;8.568;2023-04-01T06:13:52;3.03;;;0.67;;
14078;SDS011;7115;50.150;8.568;2023-04-01T06:16:53;3.37;;;0.80;;
14078;SDS011;7115;50.150;8.568;2023-04-01T06:19:32;5.30;;;0.80;;
14078;SDS011;7115;50.150;8.568;2023-04-01T06:22:14;3.33;;;0.40;;
14078;SDS011;7115;50.150;8.568;2023-04-01T06:27:54;2.20;;;0.57;;
14078;SDS011;7115;50.150;8.568;2023-04-01T06:30:35;3.50;;;0.73;;
14078;SDS011;7115;50.150;8.568;2023-04-01T06:36:09;4.63;;;0.70;;
14078;SDS011;7115;50.150;8.568;2023-04-01T06:38:46;1.90;;;0.73;;
14078;SDS011;7115;50.150;8.568;2023-04-01T06:41:45;2.43;;;0.63;;
14078;SDS011;7115;50.150;8.568;2023-04-01T06:44:37;3.17;;;0.50;;
14078;SDS011;7115;50.150;8.568;2023-04-01T06:47:15;1.63;;;0.40;;
14078;SDS011;7115;50.150;8.568;2023-04-01T06:49:56;1.27;;;0.40;;
14078;SDS011;7115;50.150;8.568;2023-04-01T06:52:31;3.50;;;0.73;;
14078;SDS011;7115;50.150;8.568;2023-04-01T06:55:14;1.17;;;0.33;;
14078;SDS011;7115;50.150;8.568;2023-04-01T06:57:54;3.03;;;0.60;;
14078;SDS011;7115;50.150;8.568;2023-04-01T07:00:27;3.93;;;0.57;;
14078;SDS011;7115;50.150;8.568;2023-04-01T07:02:59;1.53;;;0.60;;
14078;SDS011;7115;50.150;8.568;2023-04-01T07:05:33;1.73;;;0.47;;
14078;SDS011;7115;50.150;8.568;2023-04-01T07:08:02;0.57;;;0.30;;
14078;SDS011;7115;50.150;8.568;2023-04-01T07:10:33;1.07;;;0.53;;
14078;SDS011;7115;50.150;8.568;2023-04-01T07:13:10;1.73;;;0.70;;
14078;SDS011;7115;50.150;8.568;2023-04-01T07:15:45;0.87;;;0.30;;
14078;SDS011;7115;50.150;8.568;2023-04-01T07:18:17;2.53;;;0.50;;
14078;SDS011;7115;50.150;8.568;2023-04-01T07:20:48;1.27;;;0.30;;
14078;SDS011;7115;50.150;8.568;2023-04-01T07:23:20;0.87;;;0.40;;
14078;SDS011;7115;50.150;8.568;2023-04-01T07:25:51;2.23;;;0.50;;
14078;SDS011;7115;50.150;8.568;2023-04-01T07:28:21;2.37;;;0.50;;
14078;SDS011;7115;50.150;8.568;2023-04-01T07:30:52;2.17;;;0.50;;
14078;SDS011;7115;50.150;8.568;2023-04-01T07:33:30;3.37;;;0.50;;
14078;SDS011;7115;50.150;8.568;2023-04-01T07:36:03;1.20;;;0.30;;
14078;SDS011;7115;50.150;8.568;2023-04-01T07:38:39;2.50;;;0.60;;
14078;SDS011;7115;50.150;8.568;2023-04-01T07:41:17;2.47;;;0.43;;
14078;SDS011;7115;50.150;8.568;2023-04-01T07:43:54;1.53;;;0.33;;
14078;SDS011;7115;50.150;8.568;2023-04-01T07:49:21;0.93;;;0.43;;
14078;SDS011;7115;50.150;8.568;2023-04-01T07:51:56;2.23;;;1.07;;
14078;SDS011;7115;50.150;8.568;2023-04-01T07:54:29;0.97;;;0.53;;
14078;SDS011;7115;50.150;8.568;2023-04-01T07:57:06;0.77;;;0.40;;
14078;SDS011;7115;50.150;8.568;2023-04-01T07:59:40;2.53;;;0.50;;
14078;SDS011;7115;50.150;8.568;2023-04-01T08:02:19;4.77;;;0.53;;
14078;SDS011;7115;50.150;8.568;2023-04-01T08:04:56;3.30;;;0.50;;
14078;SDS011;7115;50.150;8.568;2023-04-01T08:07:33;1.40;;;0.57;;
14078;SDS011;7115;50.150;8.568;2023-04-01T08:10:09;0.63;;;0.40;;
14078;SDS011;7115;50.150;8.568;2023-04-01T08:12:45;2.77;;;0.47;;
14078;SDS011;7115;50.150;8.568;2023-04-01T08:15:21;0.90;;;0.30;;
14078;SDS011;7115;50.150;8.568;2023-04-01T08:17:57;2.73;;;0.40;;
14078;SDS011;7115;50.150;8.568;2023-04-01T08:20:33;0.50;;;0.30;;
14078;SDS011;7115;50.150;8.568;2023-04-01T08:23:05;0.40;;;0.10;;
14078;SDS011;7115;50.150;8.568;2023-04-01T08:25:38;0.63;;;0.20;;
14078;SDS011;7115;50.150;8.568;2023-04-01T08:28:10;0.50;;;0.30;;
14078;SDS011;7115;50.150;8.568;2023-04-01T08:30:42;0.67;;;0.30;;
14078;SDS011;7115;50.150;8.568;2023-04-01T08:33:15;1.03;;;0.30;;
14078;SDS011;7115;50.150;8.568;2023-04-01T08:35:46;0.97;;;0.60;;
14078;SDS011;7115;50.150;8.568;2023-04-01T08:38:19;1.20;;;0.27;;
14078;SDS011;7115;50.150;8.568;2023-04-01T08:40:57;1.63;;;0.30;;
14078;SDS011;7115;50.150;8.568;2023-04-01T08:43:39;2.17;;;0.60;;
14078;SDS011;7115;50.150;8.568;2023-04-01T08:46:27;0.13;;;0.13;;
14078;SDS011;7115;50.150;8.568;2023-04-01T08:49:11;1.70;;;0.40;;
14078;SDS011;7115;50.150;8.568;2023-04-01T08:51:59;1.20;;;0.30;;
14078;SDS011;7115;50.150;8.568;2023-04-01T08:57:56;0.47;;;0.20;;
14078;SDS011;7115;50.150;8.568;2023-04-01T09:00:38;0.83;;;0.27;;
14078;SDS011;7115;50.150;8.568;2023-04-01T09:03:29;1.20;;;0.30;;
14078;SDS011;7115;50.150;8.568;2023-04-01T09:08:53;2.13;;;0.47;;
14078;SDS011;7115;50.150;8.568;2023-04-01T09:11:38;1.13;;;0.33;;
14078;SDS011;7115;50.150;8.568;2023-04-01T09:14:25;1.10;;;0.40;;
14078;SDS011;7115;50.150;8.568;2023-04-01T09:17:19;2.47;;;0.40;;
14078;SDS011;7115;50.150;8.568;2023-04-01T09:20:08;1.00;;;0.30;;
14078;SDS011;7115;50.150;8.568;2023-04-01T09:22:52;0.87;;;0.27;;
14078;SDS011;7115;50.150;8.568;2023-04-01T09:25:38;2.57;;;0.20;;
14078;SDS011;7115;50.150;8.568;2023-04-01T09:28:15;1.00;;;0.40;;
14078;SDS011;7115;50.150;8.568;2023-04-01T09:31:04;0.63;;;0.30;;
14078;SDS011;7115;50.150;8.568;2023-04-01T09:37:13;1.43;;;0.37;;
14078;SDS011;7115;50.150;8.568;2023-04-01T09:39:50;1.60;;;0.50;;
14078;SDS011;7115;50.150;8.568;2023-04-01T09:42:33;2.53;;;0.60;;
14078;SDS011;7115;50.150;8.568;2023-04-01T09:45:15;0.50;;;0.37;;
14078;SDS011;7115;50.150;8.568;2023-04-01T09:47:56;0.37;;;0.20;;
14078;SDS011;7115;50.150;8.568;2023-04-01T09:50:35;0.20;;;0.20;;
14078;SDS011;7115;50.150;8.568;2023-04-01T09:53:14;0.23;;;0.20;;
14078;SDS011;7115;50.150;8.568;2023-04-01T10:08:24;0.70;;;0.53;;
14078;SDS011;7115;50.150;8.568;2023-04-01T10:11:33;1.20;;;0.47;;
14078;SDS011;7115;50.150;8.568;2023-04-01T10:14:50;0.50;;;0.33;;
14078;SDS011;7115;50.150;8.568;2023-04-01T10:17:49;1.87;;;0.50;;
14078;SDS011;7115;50.150;8.568;2023-04-01T10:20:47;0.77;;;0.27;;
14078;SDS011;7115;50.150;8.568;2023-04-01T10:23:42;1.23;;;0.43;;
14078;SDS011;7115;50.150;8.568;2023-04-01T10:26:25;1.17;;;0.70;;
14078;SDS011;7115;50.150;8.568;2023-04-01T10:29:15;0.57;;;0.30;;
14078;SDS011;7115;50.150;8.568;2023-04-01T10:32:04;0.43;;;0.23;;
14078;SDS011;7115;50.150;8.568;2023-04-01T10:35:05;0.47;;;0.27;;
14078;SDS011;7115;50.150;8.568;2023-04-01T10:40:57;1.10;;;0.30;;
14078;SDS011;7115;50.150;8.568;2023-04-01T10:44:12;1.70;;;0.40;;
14078;SDS011;7115;50.150;8.568;2023-04-01T10:47:19;2.77;;;0.30;;
14078;SDS011;7115;50.150;8.568;2023-04-01T10:50:32;1.00;;;0.30;;
14078;SDS011;7115;50.150;8.568;2023-04-01T11:05:19;0.47;;;0.30;;
14078;SDS011;7115;50.150;8.568;2023-04-01T11:08:16;0.60;;;0.23;;
14078;SDS011;7115;50.150;8.568;2023-04-01T11:11:25;1.03;;;0.43;;
14078;SDS011;7115;50.150;8.568;2023-04-01T11:17:41;0.67;;;0.30;;
14078;SDS011;7115;50.150;8.568;2023-04-01T11:26:38;0.40;;;0.40;;
14078;SDS011;7115;50.150;8.568;2023-04-01T11:29:36;0.80;;;0.30;;
14078;SDS011;7115;50.150;8.568;2023-04-01T11:32:31;0.53;;;0.30;;
14078;SDS011;7115;50.150;8.568;2023-04-01T11:38:09;0.90;;;0.30;;
14078;SDS011;7115;50.150;8.568;2023-04-01T11:40:54;0.20;;;0.20;;
14078;SDS011;7115;50.150;8.568;2023-04-01T11:43:29;0.40;;;0.30;;
14078;SDS011;7115;50.150;8.568;2023-04-01T11:46:02;0.60;;;0.30;;
14078;SDS011;7115;50.150;8.568;2023-04-01T11:48:54;0.60;;;0.40;;
14078;SDS011;7115;50.150;8.568;2023-04-01T11:51:36;0.40;;;0.20;;
14078;SDS011;7115;50.150;8.568;2023-04-01T11:54:21;1.37;;;0.20;;
14078;SDS011;7115;50.150;8.568;2023-04-01T11:57:12;0.30;;;0.10;;
14078;SDS011;7115;50.150;8.568;2023-04-01T12:02:55;0.77;;;0.40;;
14078;SDS011;7115;50.150;8.568;2023-04-01T12:05:38;1.13;;;0.40;;
14078;SDS011;7115;50.150;8.568;2023-04-01T12:08:13;0.37;;;0.27;;
14078;SDS011;7115;50.150;8.568;2023-04-01T12:10:49;0.40;;;0.30;;
14078;SDS011;7115;50.150;8.568;2023-04-01T12:13:29;0.83;;;0.43;;
14078;SDS011;7115;50.150;8.568;2023-04-01T12:16:07;2.93;;;0.40;;
14078;SDS011;7115;50.150;8.568;2023-04-01T12:18:46;4.07;;;0.20;;
14078;SDS011;7115;50.150;8.568;2023-04-01T12:21:17;0.70;;;0.40;;
14078;SDS011;7115;50.150;8.568;2023-04-01T12:23:56;0.33;;;0.20;;
14078;SDS011;7115;50.150;8.568;2023-04-01T12:26:40;0.50;;;0.30;;
14078;SDS011;7115;50.150;8.568;2023-04-01T12:29:21;0.60;;;0.50;;
14078;SDS011;7115;50.150;8.568;2023-04-01T12:32:12;1.07;;;0.60;;
14078;SDS011;7115;50.150;8.568;2023-04-01T12:34:50;2.10;;;0.40;;
14078;SDS011;7115;50.150;8.568;2023-04-01T12:37:30;0.60;;;0.30;;
14078;SDS011;7115;50.150;8.568;2023-04-01T12:40:16;0.17;;;0.17;;
14078;SDS011;7115;50.150;8.568;2023-04-01T12:43:05;0.30;;;0.20;;
14078;SDS011;7115;50.150;8.568;2023-04-01T12:45:49;1.17;;;0.30;;
14078;SDS011;7115;50.150;8.568;2023-04-01T12:51:24;0.60;;;0.20;;
14078;SDS011;7115;50.150;8.568;2023-04-01T12:54:18;0.67;;;0.30;;
14078;SDS011;7115;50.150;8.568;2023-04-01T12:57:13;0.60;;;0.20;;
14078;SDS011;7115;50.150;8.568;2023-04-01T13:00:05;0.63;;;0.60;;
14078;SDS011;7115;50.150;8.568;2023-04-01T13:02:46;0.30;;;0.30;;
14078;SDS011;7115;50.150;8.568;2023-04-01T13:05:44;0.30;;;0.30;;
14078;SDS011;7115;50.150;8.568;2023-04-01T13:08:49;0.90;;;0.40;;
14078;SDS011;7115;50.150;8.568;2023-04-01T13:11:24;0.77;;;0.30;;
14078;SDS011;7115;50.150;8.568;2023-04-01T13:16:59;0.57;;;0.23;;
14078;SDS011;7115;50.150;8.568;2023-04-01T13:19:34;0.33;;;0.33;;
14078;SDS011;7115;50.150;8.568;2023-04-01T13:22:14;0.73;;;0.50;;
14078;SDS011;7115;50.150;8.568;2023-04-01T13:24:46;1.17;;;0.43;;
14078;SDS011;7115;50.150;8.568;2023-04-01T13:27:18;0.40;;;0.37;;
14078;SDS011;7115;50.150;8.568;2023-04-01T13:29:56;1.43;;;0.67;;
14078;SDS011;7115;50.150;8.568;2023-04-01T13:32:29;0.83;;;0.30;;
14078;SDS011;7115;50.150;8.568;2023-04-01T13:35:14;1.03;;;0.30;;
14078;SDS011;7115;50.150;8.568;2023-04-01T13:37:54;0.53;;;0.20;;
14078;SDS011;7115;50.150;8.568;2023-04-01T13:40:33;1.60;;;0.40;;
14078;SDS011;7115;50.150;8.568;2023-04-01T13:43:28;0.30;;;0.20;;
14078;SDS011;7115;50.150;8.568;2023-04-01T13:49:06;0.60;;;0.20;;
14078;SDS011;7115;50.150;8.568;2023-04-01T13:52:12;0.30;;;0.20;;
14078;SDS011;7115;50.150;8.568;2023-04-01T13:55:02;0.63;;;0.50;;
14078;SDS011;7115;50.150;8.568;2023-04-01T13:57:55;0.83;;;0.50;;
14078;SDS011;7115;50.150;8.568;2023-04-01T14:00:39;0.33;;;0.20;;
14078;SDS011;7115;50.150;8.568;2023-04-01T14:03:32;1.30;;;0.20;;
14078;SDS011;7115;50.150;8.568;2023-04-01T14:06:14;0.30;;;0.20;;
14078;SDS011;7115;50.150;8.568;2023-04-01T14:11:48;0.10;;;0.10;;
14078;SDS011;7115;50.150;8.568;2023-04-01T14:14:22;0.73;;;0.27;;
14078;SDS011;7115;50.150;8.568;2023-04-01T14:17:10;0.50;;;0.30;;
14078;SDS011;7115;50.150;8.568;2023-04-01T14:20:03;0.30;;;0.10;;
14078;SDS011;7115;50.150;8.568;2023-04-01T14:23:07;0.20;;;0.20;;
14078;SDS011;7115;50.150;8.568;2023-04-01T14:25:49;0.20;;;0.10;;
14078;SDS011;7115;50.150;8.568;2023-04-01T14:28:42;0.97;;;0.30;;
14078;SDS011;7115;50.150;8.568;2023-04-01T14:31:41;0.30;;;0.20;;
14078;SDS011;7115;50.150;8.568;2023-04-01T14:34:29;0.63;;;0.20;;
14078;SDS011;7115;50.150;8.568;2023-04-01T14:37:15;0.67;;;0.27;;
14078;SDS011;7115;50.150;8.568;2023-04-01T14:40:19;1.17;;;0.40;;
14078;SDS011;7115;50.150;8.568;2023-04-01T14:42:58;2.03;;;0.30;;
14078;SDS011;7115;50.150;8.568;2023-04-01T14:45:44;1.50;;;0.20;;
14078;SDS011;7115;50.150;8.568;2023-04-01T14:48:17;0.47;;;0.30;;
14078;SDS011;7115;50.150;8.568;2023-04-01T14:50:55;0.30;;;0.20;;
14078;SDS011;7115;50.150;8.568;2023-04-01T14:53:29;0.40;;;0.20;;
14078;SDS011;7115;50.150;8.568;2023-04-01T14:56:00;1.03;;;0.20;;
14078;SDS011;7115;50.150;8.568;2023-04-01T14:58:38;1.30;;;0.30;;
14078;SDS011;7115;50.150;8.568;2023-04-01T15:01:16;3.30;;;2.10;;
14078;SDS011;7115;50.150;8.568;2023-04-01T15:03:58;0.87;;;0.30;;
14078;SDS011;7115;50.150;8.568;2023-04-01T15:06:44;0.73;;;0.30;;
14078;SDS011;7115;50.150;8.568;2023-04-01T15:09:23;1.43;;;0.53;;
14078;SDS011;7115;50.150;8.568;2023-04-01T15:12:03;1.30;;;0.23;;
14078;SDS011;7115;50.150;8.568;2023-04-01T15:14:45;0.40;;;0.27;;
14078;SDS011;7115;50.150;8.568;2023-04-01T15:17:41;2.57;;;0.30;;
14078;SDS011;7115;50.150;8.568;2023-04-01T15:23:16;0.30;;;0.20;;
14078;SDS011;7115;50.150;8.568;2023-04-01T15:26:01;2.37;;;1.53;;
14078;SDS011;7115;50.150;8.568;2023-04-01T15:29:03;1.10;;;0.30;;
14078;SDS011;7115;50.150;8.568;2023-04-01T15:31:45;1.90;;;0.40;;
14078;SDS011;7115;50.150;8.568;2023-04-01T15:34:23;1.03;;;0.30;;
14078;SDS011;7115;50.150;8.568;2023-04-01T15:37:00;2.83;;;1.00;;
14078;SDS011;7115;50.150;8.568;2023-04-01T15:39:36;1.73;;;1.03;;
14078;SDS011;7115;50.150;8.568;2023-04-01T15:42:22;0.53;;;0.30;;
14078;SDS011;7115;50.150;8.568;2023-04-01T15:45:02;1.50;;;0.40;;
14078;SDS011;7115;50.150;8.568;2023-04-01T15:47:37;0.30;;;0.20;;
14078;SDS011;7115;50.150;8.568;2023-04-01T15:50:21;1.27;;;0.40;;
14078;SDS011;7115;50.150;8.568;2023-04-01T15:53:23;0.93;;;0.40;;
14078;SDS011;7115;50.150;8.568;2023-04-01T15:56:11;0.40;;;0.20;;
14078;SDS011;7115;50.150;8.568;2023-04-01T15:58:51;1.97;;;0.40;;
14078;SDS011;7115;50.150;8.568;2023-04-01T16:01:28;1.23;;;0.30;;
14078;SDS011;7115;50.150;8.568;2023-04-01T16:04:08;0.63;;;0.30;;
14078;SDS011;7115;50.150;8.568;2023-04-01T16:07:01;1.53;;;0.33;;
14078;SDS011;7115;50.150;8.568;2023-04-01T16:09:36;2.37;;;0.60;;
14078;SDS011;7115;50.150;8.568;2023-04-01T16:12:15;1.93;;;0.40;;
14078;SDS011;7115;50.150;8.568;2023-04-01T16:14:47;0.33;;;0.30;;
14078;SDS011;7115;50.150;8.568;2023-04-01T16:17:28;1.67;;;0.40;;
14078;SDS011;7115;50.150;8.568;2023-04-01T16:20:07;0.60;;;0.30;;
14078;SDS011;7115;50.150;8.568;2023-04-01T16:22:48;1.57;;;0.40;;
14078;SDS011;7115;50.150;8.568;2023-04-01T16:25:20;0.70;;;0.30;;
14078;SDS011;7115;50.150;8.568;2023-04-01T16:28:02;1.03;;;0.30;;
14078;SDS011;7115;50.150;8.568;2023-04-01T16:30:40;0.43;;;0.20;;
14078;SDS011;7115;50.150;8.568;2023-04-01T16:33:13;0.60;;;0.40;;
14078;SDS011;7115;50.150;8.568;2023-04-01T16:35:47;0.63;;;0.37;;
14078;SDS011;7115;50.150;8.568;2023-04-01T16:38:23;0.50;;;0.20;;
14078;SDS011;7115;50.150;8.568;2023-04-01T16:41:00;1.30;;;0.50;;
14078;SDS011;7115;50.150;8.568;2023-04-01T16:43:38;3.07;;;1.53;;
14078;SDS011;7115;50.150;8.568;2023-04-01T16:46:15;3.73;;;0.70;;
14078;SDS011;7115;50.150;8.568;2023-04-01T16:48:58;1.10;;;0.30;;
14078;SDS011;7115;50.150;8.568;2023-04-01T16:51:37;0.73;;;0.40;;
14078;SDS011;7115;50.150;8.568;2023-04-01T16:54:13;2.27;;;0.70;;
14078;SDS011;7115;50.150;8.568;2023-04-01T16:56:45;1.10;;;0.40;;
14078;SDS011;7115;50.150;8.568;2023-04-01T16:59:18;0.77;;;0.47;;
14078;SDS011;7115;50.150;8.568;2023-04-01T17:01:49;1.30;;;0.50;;
14078;SDS011;7115;50.150;8.568;2023-04-01T17:04:26;2.20;;;0.40;;
14078;SDS011;7115;50.150;8.568;2023-04-01T17:07:01;0.57;;;0.40;;
14078;SDS011;7115;50.150;8.568;2023-04-01T17:12:32;2.50;;;0.57;;
14078;SDS011;7115;50.150;8.568;2023-04-01T17:15:10;0.67;;;0.40;;
14078;SDS011;7115;50.150;8.568;2023-04-01T17:17:45;0.83;;;0.37;;
14078;SDS011;7115;50.150;8.568;2023-04-01T17:23:11;1.30;;;0.30;;